sensor_id;sensor_type;location;lat;lon;timestamp;temperature;humidity
67893;DHT22;54688;52.376;16.744;2023-03-19T00:00:08;3.8;72.7
67893;DHT22;54688;52.376;16.744;2023-03-19T00:04:05;3.8;72.7
67893;DHT22;54688;52.376;16.744;2023-03-19T00:07:07;3.8;72.6
67893;DHT22;54688;52.376;16.744;2023-03-19T00:10:10;3.9;72.5
67893;DHT22;54688;52.376;16.744;2023-03-19T00:13:11;3.9;72.6
67893;DHT22;54688;52.376;16.744;2023-03-19T00:16:14;3.9;72.7
67893;DHT22;54688;52.376;16.744;2023-03-19T00:22:16;3.9;72.7
67893;DHT22;54688;52.376;16.744;2023-03-19T00:25:18;3.9;72.9
67893;DHT22;54688;52.376;16.744;2023-03-19T00:28:20;4;73.1
67893;DHT22;54688;52.376;16.744;2023-03-19T00:31:23;4;73.1
67893;DHT22;54688;52.376;16.744;2023-03-19T00:34:26;4;73
67893;DHT22;54688;52.376;16.744;2023-03-19T00:37:28;4.1;72.9
67893;DHT22;54688;52.376;16.744;2023-03-19T00:40:29;4.1;72.8
67893;DHT22;54688;52.376;16.744;2023-03-19T00:43:32;4.1;72.8
67893;DHT22;54688;52.376;16.744;2023-03-19T00:46:35;4.2;72.8
67893;DHT22;54688;52.376;16.744;2023-03-19T00:49:36;4.2;72.9
67893;DHT22;54688;52.376;16.744;2023-03-19T00:52:38;4.2;72.7
67893;DHT22;54688;52.376;16.744;2023-03-19T00:55:41;4.2;72.6
67893;DHT22;54688;52.376;16.744;2023-03-19T00:58:44;4.3;72.6
67893;DHT22;54688;52.376;16.744;2023-03-19T01:01:46;4.3;72.7
67893;DHT22;54688;52.376;16.744;2023-03-19T01:04:49;4.3;72.7
67893;DHT22;54688;52.376;16.744;2023-03-19T01:07:51;4.3;72.8
67893;DHT22;54688;52.376;16.744;2023-03-19T01:10:53;4.4;72.9
67893;DHT22;54688;52.376;16.744;2023-03-19T01:13:56;4.4;72.8
67893;DHT22;54688;52.376;16.744;2023-03-19T01:16:59;4.4;72.9
67893;DHT22;54688;52.376;16.744;2023-03-19T01:20:02;4.5;72.8
67893;DHT22;54688;52.376;16.744;2023-03-19T01:23:05;4.5;72.7
67893;DHT22;54688;52.376;16.744;2023-03-19T01:26:07;4.4;72.7
67893;DHT22;54688;52.376;16.744;2023-03-19T01:29:09;4.5;72.8
67893;DHT22;54688;52.376;16.744;2023-03-19T01:32:11;4.5;72.8
67893;DHT22;54688;52.376;16.744;2023-03-19T01:35:14;4.5;72.7
67893;DHT22;54688;52.376;16.744;2023-03-19T01:38:16;4.5;72.7
67893;DHT22;54688;52.376;16.744;2023-03-19T01:41:18;4.4;73.3
67893;DHT22;54688;52.376;16.744;2023-03-19T01:44:23;4.4;72.3
67893;DHT22;54688;52.376;16.744;2023-03-19T01:47:28;4.4;72.2
67893;DHT22;54688;52.376;16.744;2023-03-19T01:50:33;4.3;72.2
67893;DHT22;54688;52.376;16.744;2023-03-19T01:53:42;4.2;72.2
67893;DHT22;54688;52.376;16.744;2023-03-19T01:56:48;4.2;72.8
67893;DHT22;54688;52.376;16.744;2023-03-19T01:59:54;4.1;72.3
67893;DHT22;54688;52.376;16.744;2023-03-19T02:02:58;4.1;72.4
67893;DHT22;54688;52.376;16.744;2023-03-19T02:06:01;4;72.6
67893;DHT22;54688;52.376;16.744;2023-03-19T02:09:04;3.9;72.8
67893;DHT22;54688;52.376;16.744;2023-03-19T02:12:06;3.9;72.9
67893;DHT22;54688;52.376;16.744;2023-03-19T02:15:12;3.8;72.9
67893;DHT22;54688;52.376;16.744;2023-03-19T02:18:14;3.8;73
67893;DHT22;54688;52.376;16.744;2023-03-19T02:21:16;3.7;73.1
67893;DHT22;54688;52.376;16.744;2023-03-19T02:24:22;3.7;73.1
67893;DHT22;54688;52.376;16.744;2023-03-19T02:27:28;3.7;73.4
67893;DHT22;54688;52.376;16.744;2023-03-19T02:30:31;3.7;73.6
67893;DHT22;54688;52.376;16.744;2023-03-19T02:33:34;3.6;73.6
67893;DHT22;54688;52.376;16.744;2023-03-19T02:36:38;3.6;73.8
67893;DHT22;54688;52.376;16.744;2023-03-19T02:39:47;3.6;73.6
67893;DHT22;54688;52.376;16.744;2023-03-19T02:42:52;3.5;73.7
67893;DHT22;54688;52.376;16.744;2023-03-19T02:45:53;3.5;73.9
67893;DHT22;54688;52.376;16.744;2023-03-19T02:48:56;3.5;73.9
67893;DHT22;54688;52.376;16.744;2023-03-19T02:51:58;3.5;74.1
67893;DHT22;54688;52.376;16.744;2023-03-19T02:55:00;3.5;74.2
67893;DHT22;54688;52.376;16.744;2023-03-19T02:58:02;3.4;74.3
67893;DHT22;54688;52.376;16.744;2023-03-19T03:01:05;3.4;74.4
67893;DHT22;54688;52.376;16.744;2023-03-19T03:04:07;3.4;74.6
67893;DHT22;54688;52.376;16.744;2023-03-19T03:07:10;3.3;74.4
67893;DHT22;54688;52.376;16.744;2023-03-19T03:10:12;3.3;74.5
67893;DHT22;54688;52.376;16.744;2023-03-19T03:13:14;3.3;74.5
67893;DHT22;54688;52.376;16.744;2023-03-19T03:16:16;3.3;74.6
67893;DHT22;54688;52.376;16.744;2023-03-19T03:19:17;3.2;75
67893;DHT22;54688;52.376;16.744;2023-03-19T03:22:19;3.2;74.8
67893;DHT22;54688;52.376;16.744;2023-03-19T03:25:22;3.2;75.6
67893;DHT22;54688;52.376;16.744;2023-03-19T03:28:24;3.2;75.5
67893;DHT22;54688;52.376;16.744;2023-03-19T03:31:27;3.2;75.5
67893;DHT22;54688;52.376;16.744;2023-03-19T03:34:30;3.2;75.4
67893;DHT22;54688;52.376;16.744;2023-03-19T03:37:32;3.2;75.5
67893;DHT22;54688;52.376;16.744;2023-03-19T03:40:34;3.2;75.6
67893;DHT22;54688;52.376;16.744;2023-03-19T03:43:35;3.2;75.6
67893;DHT22;54688;52.376;16.744;2023-03-19T03:46:38;3.2;75.6
67893;DHT22;54688;52.376;16.744;2023-03-19T03:49:40;3.2;75.4
67893;DHT22;54688;52.376;16.744;2023-03-19T03:52:43;3.2;75.2
67893;DHT22;54688;52.376;16.744;2023-03-19T03:55:45;3.1;75.2
67893;DHT22;54688;52.376;16.744;2023-03-19T03:58:47;3.1;75.2
67893;DHT22;54688;52.376;16.744;2023-03-19T04:01:49;3.1;75.2
67893;DHT22;54688;52.376;16.744;2023-03-19T04:04:51;3;75.3
67893;DHT22;54688;52.376;16.744;2023-03-19T04:07:53;2.9;75.3
67893;DHT22;54688;52.376;16.744;2023-03-19T04:10:56;2.9;75.5
67893;DHT22;54688;52.376;16.744;2023-03-19T04:13:58;2.9;75.8
67893;DHT22;54688;52.376;16.744;2023-03-19T04:20:00;2.8;75.9
67893;DHT22;54688;52.376;16.744;2023-03-19T04:23:02;2.8;76.1
67893;DHT22;54688;52.376;16.744;2023-03-19T04:26:05;2.8;76.1
67893;DHT22;54688;52.376;16.744;2023-03-19T04:29:07;2.7;76
67893;DHT22;54688;52.376;16.744;2023-03-19T04:32:09;2.7;76.1
67893;DHT22;54688;52.376;16.744;2023-03-19T04:35:12;2.7;76.2
67893;DHT22;54688;52.376;16.744;2023-03-19T04:38:14;2.7;76.1
67893;DHT22;54688;52.376;16.744;2023-03-19T04:41:16;2.6;76
67893;DHT22;54688;52.376;16.744;2023-03-19T04:44:19;2.6;76.2
67893;DHT22;54688;52.376;16.744;2023-03-19T04:47:21;2.5;76.3
67893;DHT22;54688;52.376;16.744;2023-03-19T04:50:23;2.5;76.2
67893;DHT22;54688;52.376;16.744;2023-03-19T04:53:25;2.5;76.3
67893;DHT22;54688;52.376;16.744;2023-03-19T04:59:26;2.5;76.5
67893;DHT22;54688;52.376;16.744;2023-03-19T05:02:28;2.5;76.5
67893;DHT22;54688;52.376;16.744;2023-03-19T05:05:31;2.5;76.6
67893;DHT22;54688;52.376;16.744;2023-03-19T05:08:33;2.5;76.8
67893;DHT22;54688;52.376;16.744;2023-03-19T05:11:35;2.5;76.6
67893;DHT22;54688;52.376;16.744;2023-03-19T05:17:37;2.4;76.9
67893;DHT22;54688;52.376;16.744;2023-03-19T05:20:39;2.4;76.9
67893;DHT22;54688;52.376;16.744;2023-03-19T05:23:42;2.4;76.9
67893;DHT22;54688;52.376;16.744;2023-03-19T05:26:44;2.3;76.7
67893;DHT22;54688;52.376;16.744;2023-03-19T05:32:45;2.3;77
67893;DHT22;54688;52.376;16.744;2023-03-19T05:35:50;2.3;77
67893;DHT22;54688;52.376;16.744;2023-03-19T05:38:53;2.3;77.1
67893;DHT22;54688;52.376;16.744;2023-03-19T05:41:55;2.3;77.2
67893;DHT22;54688;52.376;16.744;2023-03-19T05:44:58;2.4;77.4
67893;DHT22;54688;52.376;16.744;2023-03-19T05:48:00;2.4;77.4
67893;DHT22;54688;52.376;16.744;2023-03-19T05:51:02;2.4;77.5
67893;DHT22;54688;52.376;16.744;2023-03-19T05:54:05;2.5;77.5
67893;DHT22;54688;52.376;16.744;2023-03-19T05:57:07;2.5;77.5
67893;DHT22;54688;52.376;16.744;2023-03-19T06:00:10;2.6;77.6
67893;DHT22;54688;52.376;16.744;2023-03-19T06:03:14;2.7;77.6
67893;DHT22;54688;52.376;16.744;2023-03-19T06:06:16;2.7;77.7
67893;DHT22;54688;52.376;16.744;2023-03-19T06:09:19;2.8;77.7
67893;DHT22;54688;52.376;16.744;2023-03-19T06:12:22;2.9;77.5
67893;DHT22;54688;52.376;16.744;2023-03-19T06:15:24;3;77.4
67893;DHT22;54688;52.376;16.744;2023-03-19T06:18:26;3.1;77.4
67893;DHT22;54688;52.376;16.744;2023-03-19T06:21:28;3.2;77.4
67893;DHT22;54688;52.376;16.744;2023-03-19T06:24:31;3.3;77.3
67893;DHT22;54688;52.376;16.744;2023-03-19T06:27:32;3.4;77.3
67893;DHT22;54688;52.376;16.744;2023-03-19T06:30:34;3.5;77.1
67893;DHT22;54688;52.376;16.744;2023-03-19T06:33:36;3.6;77
67893;DHT22;54688;52.376;16.744;2023-03-19T06:36:38;3.6;76.9
67893;DHT22;54688;52.376;16.744;2023-03-19T06:39:41;3.7;76.8
67893;DHT22;54688;52.376;16.744;2023-03-19T06:42:43;3.8;76.6
67893;DHT22;54688;52.376;16.744;2023-03-19T06:45:46;3.9;76.4
67893;DHT22;54688;52.376;16.744;2023-03-19T06:48:48;4;76.4
67893;DHT22;54688;52.376;16.744;2023-03-19T06:51:50;4;76.4
67893;DHT22;54688;52.376;16.744;2023-03-19T06:54:52;4.1;76.2
67893;DHT22;54688;52.376;16.744;2023-03-19T06:57:54;4.2;76
67893;DHT22;54688;52.376;16.744;2023-03-19T07:00:56;4.3;76.5
67893;DHT22;54688;52.376;16.744;2023-03-19T07:03:58;4.3;75.7
67893;DHT22;54688;52.376;16.744;2023-03-19T07:07:00;4.5;75.4
67893;DHT22;54688;52.376;16.744;2023-03-19T07:10:02;4.5;74.9
67893;DHT22;54688;52.376;16.744;2023-03-19T07:13:05;4.7;74.1
67893;DHT22;54688;52.376;16.744;2023-03-19T07:16:07;4.8;73.5
67893;DHT22;54688;52.376;16.744;2023-03-19T07:19:09;4.9;73.2
67893;DHT22;54688;52.376;16.744;2023-03-19T07:22:11;5;72.8
67893;DHT22;54688;52.376;16.744;2023-03-19T07:25:13;5.1;71.9
67893;DHT22;54688;52.376;16.744;2023-03-19T07:28:15;5.2;71.7
67893;DHT22;54688;52.376;16.744;2023-03-19T07:31:17;5.4;71.5
67893;DHT22;54688;52.376;16.744;2023-03-19T07:34:20;5.5;70.9
67893;DHT22;54688;52.376;16.744;2023-03-19T07:37:22;5.7;69.9
67893;DHT22;54688;52.376;16.744;2023-03-19T07:40:24;5.8;69.1
67893;DHT22;54688;52.376;16.744;2023-03-19T07:43:26;5.9;68.3
67893;DHT22;54688;52.376;16.744;2023-03-19T07:46:28;6;68.3
67893;DHT22;54688;52.376;16.744;2023-03-19T07:49:30;6.2;68.2
67893;DHT22;54688;52.376;16.744;2023-03-19T07:52:33;6.3;68
67893;DHT22;54688;52.376;16.744;2023-03-19T07:55:35;6.4;67.8
67893;DHT22;54688;52.376;16.744;2023-03-19T07:58:38;6.5;67.3
67893;DHT22;54688;52.376;16.744;2023-03-19T08:01:40;6.6;67.3
67893;DHT22;54688;52.376;16.744;2023-03-19T08:04:42;6.7;67.3
67893;DHT22;54688;52.376;16.744;2023-03-19T08:07:45;6.8;66.8
67893;DHT22;54688;52.376;16.744;2023-03-19T08:10:47;7;65.8
67893;DHT22;54688;52.376;16.744;2023-03-19T08:13:48;7.1;64.9
67893;DHT22;54688;52.376;16.744;2023-03-19T08:16:51;7.2;64.8
67893;DHT22;54688;52.376;16.744;2023-03-19T08:19:52;7.3;64
67893;DHT22;54688;52.376;16.744;2023-03-19T08:22:54;7.5;64.4
67893;DHT22;54688;52.376;16.744;2023-03-19T08:25:57;7.7;64.2
67893;DHT22;54688;52.376;16.744;2023-03-19T08:28:59;7.8;64.3
67893;DHT22;54688;52.376;16.744;2023-03-19T08:32:03;7.9;63.8
67893;DHT22;54688;52.376;16.744;2023-03-19T08:38:05;8.2;62.7
67893;DHT22;54688;52.376;16.744;2023-03-19T08:41:07;8.3;61.4
67893;DHT22;54688;52.376;16.744;2023-03-19T08:44:10;8.5;61.5
67893;DHT22;54688;52.376;16.744;2023-03-19T08:47:13;8.7;61.1
67893;DHT22;54688;52.376;16.744;2023-03-19T08:50:15;8.8;61.1
67893;DHT22;54688;52.376;16.744;2023-03-19T08:53:18;9;61.4
67893;DHT22;54688;52.376;16.744;2023-03-19T08:56:19;9.1;60.4
67893;DHT22;54688;52.376;16.744;2023-03-19T08:59:21;9.2;59.7
67893;DHT22;54688;52.376;16.744;2023-03-19T09:02:24;9.3;59.5
67893;DHT22;54688;52.376;16.744;2023-03-19T09:05:26;9.4;59.3
67893;DHT22;54688;52.376;16.744;2023-03-19T09:11:27;9.5;59
67893;DHT22;54688;52.376;16.744;2023-03-19T09:14:29;9.6;58.6
67893;DHT22;54688;52.376;16.744;2023-03-19T09:17:31;9.8;58
67893;DHT22;54688;52.376;16.744;2023-03-19T09:20:34;9.8;57.3
67893;DHT22;54688;52.376;16.744;2023-03-19T09:23:35;9.9;56.1
67893;DHT22;54688;52.376;16.744;2023-03-19T09:26:38;10.1;57.3
67893;DHT22;54688;52.376;16.744;2023-03-19T09:29:41;10.2;57.2
67893;DHT22;54688;52.376;16.744;2023-03-19T09:32:43;10.4;57.2
67893;DHT22;54688;52.376;16.744;2023-03-19T09:35:49;10.6;57.1
67893;DHT22;54688;52.376;16.744;2023-03-19T09:38:54;10.7;57.6
67893;DHT22;54688;52.376;16.744;2023-03-19T09:42:00;10.9;57.1
67893;DHT22;54688;52.376;16.744;2023-03-19T09:45:11;11;56.2
67893;DHT22;54688;52.376;16.744;2023-03-19T09:48:16;11.3;55.5
67893;DHT22;54688;52.376;16.744;2023-03-19T09:51:27;11.4;55
67893;DHT22;54688;52.376;16.744;2023-03-19T09:54:34;11.5;54.2
67893;DHT22;54688;52.376;16.744;2023-03-19T09:57:40;11.6;53.8
67893;DHT22;54688;52.376;16.744;2023-03-19T10:00:43;11.7;53.3
67893;DHT22;54688;52.376;16.744;2023-03-19T10:03:52;11.8;53.1
67893;DHT22;54688;52.376;16.744;2023-03-19T10:07:13;11.8;52.5
67893;DHT22;54688;52.376;16.744;2023-03-19T10:10:31;11.9;52.7
67893;DHT22;54688;52.376;16.744;2023-03-19T10:13:48;12.1;52.7
67893;DHT22;54688;52.376;16.744;2023-03-19T10:16:57;12.2;51.9
67893;DHT22;54688;52.376;16.744;2023-03-19T10:20:02;12.4;52.1
67893;DHT22;54688;52.376;16.744;2023-03-19T10:23:20;12.5;50.7
67893;DHT22;54688;52.376;16.744;2023-03-19T10:26:28;12.6;50
67893;DHT22;54688;52.376;16.744;2023-03-19T10:32:33;12.8;50.7
67893;DHT22;54688;52.376;16.744;2023-03-19T10:35:43;12.9;50
67893;DHT22;54688;52.376;16.744;2023-03-19T10:38:46;13;50.2
67893;DHT22;54688;52.376;16.744;2023-03-19T10:41:52;13.1;50.1
67893;DHT22;54688;52.376;16.744;2023-03-19T10:45:03;13.2;49.7
67893;DHT22;54688;52.376;16.744;2023-03-19T10:48:12;13.3;49.5
67893;DHT22;54688;52.376;16.744;2023-03-19T10:51:21;13.4;48.8
67893;DHT22;54688;52.376;16.744;2023-03-19T10:54:27;13.5;47.4
67893;DHT22;54688;52.376;16.744;2023-03-19T10:57:29;13.5;47.9
67893;DHT22;54688;52.376;16.744;2023-03-19T11:00:32;13.7;48.9
67893;DHT22;54688;52.376;16.744;2023-03-19T11:03:37;13.7;46.7
67893;DHT22;54688;52.376;16.744;2023-03-19T11:06:40;13.8;46.8
67893;DHT22;54688;52.376;16.744;2023-03-19T11:09:43;13.9;46.5
67893;DHT22;54688;52.376;16.744;2023-03-19T11:12:51;14;46.5
67893;DHT22;54688;52.376;16.744;2023-03-19T11:15:58;14.1;47.6
67893;DHT22;54688;52.376;16.744;2023-03-19T11:19:02;14.2;46.9
67893;DHT22;54688;52.376;16.744;2023-03-19T11:22:07;14.3;46.3
67893;DHT22;54688;52.376;16.744;2023-03-19T11:25:14;14.4;46.9
67893;DHT22;54688;52.376;16.744;2023-03-19T11:28:19;14.5;46.2
67893;DHT22;54688;52.376;16.744;2023-03-19T11:31:25;14.5;46.1
67893;DHT22;54688;52.376;16.744;2023-03-19T11:34:32;14.6;45.5
67893;DHT22;54688;52.376;16.744;2023-03-19T11:37:48;14.7;43.9
67893;DHT22;54688;52.376;16.744;2023-03-19T11:40:55;14.7;44.8
67893;DHT22;54688;52.376;16.744;2023-03-19T11:44:09;14.7;45.7
67893;DHT22;54688;52.376;16.744;2023-03-19T11:47:18;14.8;45.3
67893;DHT22;54688;52.376;16.744;2023-03-19T11:53:27;14.9;44.3
67893;DHT22;54688;52.376;16.744;2023-03-19T11:56:35;14.9;44.1
67893;DHT22;54688;52.376;16.744;2023-03-19T11:59:46;14.9;44
67893;DHT22;54688;52.376;16.744;2023-03-19T12:03:06;15;45.4
67893;DHT22;54688;52.376;16.744;2023-03-19T12:06:39;15;44.8
67893;DHT22;54688;52.376;16.744;2023-03-19T12:09:52;15.1;44
67893;DHT22;54688;52.376;16.744;2023-03-19T12:13:05;15.1;44.5
67893;DHT22;54688;52.376;16.744;2023-03-19T12:16:20;15.1;44.4
67893;DHT22;54688;52.376;16.744;2023-03-19T12:19:32;15.2;44.4
67893;DHT22;54688;52.376;16.744;2023-03-19T12:22:49;15.3;44.1
67893;DHT22;54688;52.376;16.744;2023-03-19T12:26:00;15.4;44.7
67893;DHT22;54688;52.376;16.744;2023-03-19T12:29:05;15.5;44.9
67893;DHT22;54688;52.376;16.744;2023-03-19T12:32:21;15.6;44.1
67893;DHT22;54688;52.376;16.744;2023-03-19T12:35:33;15.7;43.7
67893;DHT22;54688;52.376;16.744;2023-03-19T12:38:37;15.7;43.1
67893;DHT22;54688;52.376;16.744;2023-03-19T12:41:44;15.8;44
67893;DHT22;54688;52.376;16.744;2023-03-19T12:44:48;15.8;43.9
67893;DHT22;54688;52.376;16.744;2023-03-19T12:47:57;15.9;44
67893;DHT22;54688;52.376;16.744;2023-03-19T12:51:05;16;43.1
67893;DHT22;54688;52.376;16.744;2023-03-19T12:54:10;16;43.1
67893;DHT22;54688;52.376;16.744;2023-03-19T12:57:16;16;43.6
67893;DHT22;54688;52.376;16.744;2023-03-19T13:00:25;16;42.7
67893;DHT22;54688;52.376;16.744;2023-03-19T13:03:31;15.9;43.8
67893;DHT22;54688;52.376;16.744;2023-03-19T13:06:42;15.9;43.7
67893;DHT22;54688;52.376;16.744;2023-03-19T13:09:49;15.9;43.9
67893;DHT22;54688;52.376;16.744;2023-03-19T13:12:59;15.9;44.1
67893;DHT22;54688;52.376;16.744;2023-03-19T13:16:09;15.9;43
67893;DHT22;54688;52.376;16.744;2023-03-19T13:19:24;15.9;43.6
67893;DHT22;54688;52.376;16.744;2023-03-19T13:22:33;15.9;44.6
67893;DHT22;54688;52.376;16.744;2023-03-19T13:25:53;16;43.8
67893;DHT22;54688;52.376;16.744;2023-03-19T13:28:59;16.1;43.9
67893;DHT22;54688;52.376;16.744;2023-03-19T13:32:04;16.1;44.1
67893;DHT22;54688;52.376;16.744;2023-03-19T13:35:11;16.1;44.1
67893;DHT22;54688;52.376;16.744;2023-03-19T13:38:23;16.1;44.1
67893;DHT22;54688;52.376;16.744;2023-03-19T13:43:39;16.1;44.5
67893;DHT22;54688;52.376;16.744;2023-03-19T13:46:43;16.1;44.5
67893;DHT22;54688;52.376;16.744;2023-03-19T13:50:00;16.1;45
67893;DHT22;54688;52.376;16.744;2023-03-19T13:53:19;16.2;44.6
67893;DHT22;54688;52.376;16.744;2023-03-19T13:56:25;16.3;44.8
67893;DHT22;54688;52.376;16.744;2023-03-19T13:59:29;16.3;45.1
67893;DHT22;54688;52.376;16.744;2023-03-19T14:02:47;16.4;44.8
67893;DHT22;54688;52.376;16.744;2023-03-19T14:05:54;16.4;44.9
67893;DHT22;54688;52.376;16.744;2023-03-19T14:08:56;16.5;44.7
67893;DHT22;54688;52.376;16.744;2023-03-19T14:12:08;16.5;44
67893;DHT22;54688;52.376;16.744;2023-03-19T14:15:17;16.6;44.4
67893;DHT22;54688;52.376;16.744;2023-03-19T14:18:22;16.6;42.6
67893;DHT22;54688;52.376;16.744;2023-03-19T14:21:30;16.6;43
67893;DHT22;54688;52.376;16.744;2023-03-19T14:24:36;16.6;43.8
67893;DHT22;54688;52.376;16.744;2023-03-19T14:27:42;16.7;43.7
67893;DHT22;54688;52.376;16.744;2023-03-19T14:30:47;16.8;43
67893;DHT22;54688;52.376;16.744;2023-03-19T14:33:52;16.8;42.9
67893;DHT22;54688;52.376;16.744;2023-03-19T14:36:59;16.8;42.5
67893;DHT22;54688;52.376;16.744;2023-03-19T14:40:07;16.8;41.9
67893;DHT22;54688;52.376;16.744;2023-03-19T14:43:14;16.8;42.8
67893;DHT22;54688;52.376;16.744;2023-03-19T14:46:30;16.9;44
67893;DHT22;54688;52.376;16.744;2023-03-19T14:49:50;17;42.6
67893;DHT22;54688;52.376;16.744;2023-03-19T14:53:02;17;42.6
67893;DHT22;54688;52.376;16.744;2023-03-19T14:56:10;17.1;43
67893;DHT22;54688;52.376;16.744;2023-03-19T14:59:16;17.1;42.5
67893;DHT22;54688;52.376;16.744;2023-03-19T15:02:20;17.1;41.9
67893;DHT22;54688;52.376;16.744;2023-03-19T15:05:33;17;42.5
67893;DHT22;54688;52.376;16.744;2023-03-19T15:08:37;17;42.9
67893;DHT22;54688;52.376;16.744;2023-03-19T15:11:47;17;42.7
67893;DHT22;54688;52.376;16.744;2023-03-19T15:15:04;16.9;42.9
67893;DHT22;54688;52.376;16.744;2023-03-19T15:18:16;16.9;42.5
67893;DHT22;54688;52.376;16.744;2023-03-19T15:21:20;16.9;41.8
67893;DHT22;54688;52.376;16.744;2023-03-19T15:24:21;16.9;42.2
67893;DHT22;54688;52.376;16.744;2023-03-19T15:27:24;16.8;43.3
67893;DHT22;54688;52.376;16.744;2023-03-19T15:30:28;16.8;42.8
67893;DHT22;54688;52.376;16.744;2023-03-19T15:33:30;16.8;41.9
67893;DHT22;54688;52.376;16.744;2023-03-19T15:36:38;16.7;42.8
67893;DHT22;54688;52.376;16.744;2023-03-19T15:39:41;16.7;43.1
67893;DHT22;54688;52.376;16.744;2023-03-19T15:42:49;16.6;42.8
67893;DHT22;54688;52.376;16.744;2023-03-19T15:45:52;16.5;43.2
67893;DHT22;54688;52.376;16.744;2023-03-19T15:48:56;16.5;43.2
67893;DHT22;54688;52.376;16.744;2023-03-19T15:52:03;16.4;42.3
67893;DHT22;54688;52.376;16.744;2023-03-19T15:55:08;16.4;43.5
67893;DHT22;54688;52.376;16.744;2023-03-19T15:58:14;16.4;43.5
67893;DHT22;54688;52.376;16.744;2023-03-19T16:01:19;16.3;43.4
67893;DHT22;54688;52.376;16.744;2023-03-19T16:04:25;16.2;44.6
67893;DHT22;54688;52.376;16.744;2023-03-19T16:07:32;16.2;44.3
67893;DHT22;54688;52.376;16.744;2023-03-19T16:10:41;16.2;44
67893;DHT22;54688;52.376;16.744;2023-03-19T16:13:45;16.2;45
67893;DHT22;54688;52.376;16.744;2023-03-19T16:17:00;16.2;45
67893;DHT22;54688;52.376;16.744;2023-03-19T16:20:04;16.2;43.6
67893;DHT22;54688;52.376;16.744;2023-03-19T16:23:08;16.1;44.7
67893;DHT22;54688;52.376;16.744;2023-03-19T16:26:18;16;44.7
67893;DHT22;54688;52.376;16.744;2023-03-19T16:29:23;15.9;44.6
67893;DHT22;54688;52.376;16.744;2023-03-19T16:32:27;15.7;45.1
67893;DHT22;54688;52.376;16.744;2023-03-19T16:35:31;15.6;45.6
67893;DHT22;54688;52.376;16.744;2023-03-19T16:38:40;15.4;46.4
67893;DHT22;54688;52.376;16.744;2023-03-19T16:42:26;15.3;46.3
67893;DHT22;54688;52.376;16.744;2023-03-19T16:45:31;15.1;46.3
67893;DHT22;54688;52.376;16.744;2023-03-19T16:48:33;14.8;46.6
67893;DHT22;54688;52.376;16.744;2023-03-19T16:51:35;14.7;47.4
67893;DHT22;54688;52.376;16.744;2023-03-19T16:54:38;14.5;48
67893;DHT22;54688;52.376;16.744;2023-03-19T16:57:41;14.4;48.8
67893;DHT22;54688;52.376;16.744;2023-03-19T17:00:45;14.2;48.6
67893;DHT22;54688;52.376;16.744;2023-03-19T17:03:47;14;48.6
67893;DHT22;54688;52.376;16.744;2023-03-19T17:06:50;13.8;49.7
67893;DHT22;54688;52.376;16.744;2023-03-19T17:09:52;13.7;50.3
67893;DHT22;54688;52.376;16.744;2023-03-19T17:12:55;13.4;51.1
67893;DHT22;54688;52.376;16.744;2023-03-19T17:15:59;13.2;51.5
67893;DHT22;54688;52.376;16.744;2023-03-19T17:19:04;13.1;51.5
67893;DHT22;54688;52.376;16.744;2023-03-19T17:22:16;12.9;52.6
67893;DHT22;54688;52.376;16.744;2023-03-19T17:25:18;12.7;53.4
67893;DHT22;54688;52.376;16.744;2023-03-19T17:28:22;12.6;53.5
67893;DHT22;54688;52.376;16.744;2023-03-19T17:31:25;12.5;54
67893;DHT22;54688;52.376;16.744;2023-03-19T17:34:29;12.3;54.7
67893;DHT22;54688;52.376;16.744;2023-03-19T17:37:32;12.2;56.3
67893;DHT22;54688;52.376;16.744;2023-03-19T17:40:34;12.1;56.1
67893;DHT22;54688;52.376;16.744;2023-03-19T17:43:35;11.9;56.2
67893;DHT22;54688;52.376;16.744;2023-03-19T17:46:38;11.8;57
67893;DHT22;54688;52.376;16.744;2023-03-19T17:49:44;11.6;57.9
67893;DHT22;54688;52.376;16.744;2023-03-19T17:52:45;11.5;58
67893;DHT22;54688;52.376;16.744;2023-03-19T17:55:49;11.3;59.2
67893;DHT22;54688;52.376;16.744;2023-03-19T17:58:51;11.2;58.1
67893;DHT22;54688;52.376;16.744;2023-03-19T18:01:53;11.1;59.4
67893;DHT22;54688;52.376;16.744;2023-03-19T18:04:56;10.9;58.7
67893;DHT22;54688;52.376;16.744;2023-03-19T18:07:58;10.8;59.1
67893;DHT22;54688;52.376;16.744;2023-03-19T18:11:00;10.7;59.7
67893;DHT22;54688;52.376;16.744;2023-03-19T18:14:02;10.6;60
67893;DHT22;54688;52.376;16.744;2023-03-19T18:17:04;10.5;60.6
67893;DHT22;54688;52.376;16.744;2023-03-19T18:20:10;10.4;60.9
67893;DHT22;54688;52.376;16.744;2023-03-19T18:23:14;10.3;61.3
67893;DHT22;54688;52.376;16.744;2023-03-19T18:26:16;10.2;61.6
67893;DHT22;54688;52.376;16.744;2023-03-19T18:29:19;10.2;62.2
67893;DHT22;54688;52.376;16.744;2023-03-19T18:32:23;10.1;62.4
67893;DHT22;54688;52.376;16.744;2023-03-19T18:35:28;10;62.9
67893;DHT22;54688;52.376;16.744;2023-03-19T18:38:32;9.9;63
67893;DHT22;54688;52.376;16.744;2023-03-19T18:41:34;9.8;63
67893;DHT22;54688;52.376;16.744;2023-03-19T18:44:36;9.7;63
67893;DHT22;54688;52.376;16.744;2023-03-19T18:47:38;9.7;64.2
67893;DHT22;54688;52.376;16.744;2023-03-19T18:50:42;9.5;63.9
67893;DHT22;54688;52.376;16.744;2023-03-19T18:53:44;9.5;63.8
67893;DHT22;54688;52.376;16.744;2023-03-19T18:56:47;9.3;64.2
67893;DHT22;54688;52.376;16.744;2023-03-19T18:59:49;9.3;64.8
67893;DHT22;54688;52.376;16.744;2023-03-19T19:02:52;9.1;64.8
67893;DHT22;54688;52.376;16.744;2023-03-19T19:05:55;9;64.9
67893;DHT22;54688;52.376;16.744;2023-03-19T19:08:57;8.9;65
67893;DHT22;54688;52.376;16.744;2023-03-19T19:11:59;8.8;65.4
67893;DHT22;54688;52.376;16.744;2023-03-19T19:15:01;8.6;65.5
67893;DHT22;54688;52.376;16.744;2023-03-19T19:18:07;8.5;66.1
67893;DHT22;54688;52.376;16.744;2023-03-19T19:21:16;8.4;66.5
67893;DHT22;54688;52.376;16.744;2023-03-19T19:24:18;8.4;67.3
67893;DHT22;54688;52.376;16.744;2023-03-19T19:27:20;8.3;68
67893;DHT22;54688;52.376;16.744;2023-03-19T19:30:25;8.3;68
67893;DHT22;54688;52.376;16.744;2023-03-19T19:33:29;8.2;67.5
67893;DHT22;54688;52.376;16.744;2023-03-19T19:36:33;8.1;67.8
67893;DHT22;54688;52.376;16.744;2023-03-19T19:39:35;8.1;67.7
67893;DHT22;54688;52.376;16.744;2023-03-19T19:42:37;8;68
67893;DHT22;54688;52.376;16.744;2023-03-19T19:45:39;7.8;68.3
67893;DHT22;54688;52.376;16.744;2023-03-19T19:48:41;7.8;68.8
67893;DHT22;54688;52.376;16.744;2023-03-19T19:51:43;7.7;68.9
67893;DHT22;54688;52.376;16.744;2023-03-19T19:54:45;7.6;68.4
67893;DHT22;54688;52.376;16.744;2023-03-19T19:57:48;7.5;68
67893;DHT22;54688;52.376;16.744;2023-03-19T20:00:51;7.5;68.6
67893;DHT22;54688;52.376;16.744;2023-03-19T20:03:54;7.4;68.6
67893;DHT22;54688;52.376;16.744;2023-03-19T20:06:55;7.3;68.9
67893;DHT22;54688;52.376;16.744;2023-03-19T20:09:57;7.3;69.3
67893;DHT22;54688;52.376;16.744;2023-03-19T20:13:00;7.2;69.5
67893;DHT22;54688;52.376;16.744;2023-03-19T20:16:02;7.2;69.6
67893;DHT22;54688;52.376;16.744;2023-03-19T20:19:05;7.2;70.3
67893;DHT22;54688;52.376;16.744;2023-03-19T20:22:07;7.1;69.8
67893;DHT22;54688;52.376;16.744;2023-03-19T20:25:10;7.1;70
67893;DHT22;54688;52.376;16.744;2023-03-19T20:28:14;7.2;70.1
67893;DHT22;54688;52.376;16.744;2023-03-19T20:31:23;7.3;69.7